sensor_id;sensor_type;location;lat;lon;timestamp;P1;durP1;ratioP1;P2;durP2;ratioP2
43184;SDS011;28803;52.308;19.096;2023-05-24T00:00:12;16.40;;;8.07;;
43184;SDS011;28803;52.308;19.096;2023-05-24T00:03:00;14.75;;;8.23;;
43184;SDS011;28803;52.308;19.096;2023-05-24T00:05:34;14.77;;;8.18;;
43184;SDS011;28803;52.308;19.096;2023-05-24T00:08:08;16.67;;;7.93;;
43184;SDS011;28803;52.308;19.096;2023-05-24T00:10:37;14.25;;;8.40;;
43184;SDS011;28803;52.308;19.096;2023-05-24T00:13:05;17.80;;;9.38;;
43184;SDS011;28803;52.308;19.096;2023-05-24T00:15:32;15.82;;;9.02;;
43184;SDS011;28803;52.308;19.096;2023-05-24T00:18:00;14.40;;;9.02;;
43184;SDS011;28803;52.308;19.096;2023-05-24T00:20:29;15.07;;;7.82;;
43184;SDS011;28803;52.308;19.096;2023-05-24T00:22:59;16.60;;;9.00;;
43184;SDS011;28803;52.308;19.096;2023-05-24T00:25:27;15.80;;;8.40;;
43184;SDS011;28803;52.308;19.096;2023-05-24T00:27:57;19.55;;;8.85;;
43184;SDS011;28803;52.308;19.096;2023-05-24T00:30:26;14.18;;;9.20;;
43184;SDS011;28803;52.308;19.096;2023-05-24T00:32:55;14.77;;;8.73;;
43184;SDS011;28803;52.308;19.096;2023-05-24T00:35:23;14.20;;;8.23;;
43184;SDS011;28803;52.308;19.096;2023-05-24T00:37:52;20.30;;;9.88;;
43184;SDS011;28803;52.308;19.096;2023-05-24T00:40:20;13.55;;;8.70;;
43184;SDS011;28803;52.308;19.096;2023-05-24T00:42:50;14.60;;;8.60;;
43184;SDS011;28803;52.308;19.096;2023-05-24T00:45:18;17.52;;;9.35;;
43184;SDS011;28803;52.308;19.096;2023-05-24T00:47:49;14.85;;;8.57;;
43184;SDS011;28803;52.308;19.096;2023-05-24T00:50:20;16.77;;;9.15;;
43184;SDS011;28803;52.308;19.096;2023-05-24T00:52:49;16.17;;;9.30;;
43184;SDS011;28803;52.308;19.096;2023-05-24T00:55:19;13.43;;;9.02;;
43184;SDS011;28803;52.308;19.096;2023-05-24T00:57:46;13.75;;;8.13;;
43184;SDS011;28803;52.308;19.096;2023-05-24T01:00:13;13.68;;;9.10;;
43184;SDS011;28803;52.308;19.096;2023-05-24T01:02:41;15.60;;;9.30;;
43184;SDS011;28803;52.308;19.096;2023-05-24T01:05:08;16.40;;;9.63;;
43184;SDS011;28803;52.308;19.096;2023-05-24T01:08:01;13.45;;;8.95;;
43184;SDS011;28803;52.308;19.096;2023-05-24T01:10:55;16.77;;;9.52;;
43184;SDS011;28803;52.308;19.096;2023-05-24T01:16:24;17.15;;;10.25;;
43184;SDS011;28803;52.308;19.096;2023-05-24T01:19:04;15.98;;;9.10;;
43184;SDS011;28803;52.308;19.096;2023-05-24T01:21:49;15.52;;;9.48;;
43184;SDS011;28803;52.308;19.096;2023-05-24T01:24:41;17.88;;;9.98;;
43184;SDS011;28803;52.308;19.096;2023-05-24T01:27:19;15.35;;;9.38;;
43184;SDS011;28803;52.308;19.096;2023-05-24T01:29:48;15.13;;;10.30;;
43184;SDS011;28803;52.308;19.096;2023-05-24T01:32:19;18.95;;;10.85;;
43184;SDS011;28803;52.308;19.096;2023-05-24T01:34:47;14.55;;;9.57;;
43184;SDS011;28803;52.308;19.096;2023-05-24T01:37:14;13.55;;;9.25;;
43184;SDS011;28803;52.308;19.096;2023-05-24T01:39:41;16.35;;;9.40;;
43184;SDS011;28803;52.308;19.096;2023-05-24T01:42:21;16.83;;;9.38;;
43184;SDS011;28803;52.308;19.096;2023-05-24T01:44:59;17.92;;;9.30;;
43184;SDS011;28803;52.308;19.096;2023-05-24T01:47:38;14.77;;;8.85;;
43184;SDS011;28803;52.308;19.096;2023-05-24T01:50:17;15.00;;;8.93;;
43184;SDS011;28803;52.308;19.096;2023-05-24T01:53:05;13.82;;;8.85;;
43184;SDS011;28803;52.308;19.096;2023-05-24T01:55:34;15.15;;;9.05;;
43184;SDS011;28803;52.308;19.096;2023-05-24T01:58:03;15.82;;;9.77;;
43184;SDS011;28803;52.308;19.096;2023-05-24T02:00:33;15.57;;;10.05;;
43184;SDS011;28803;52.308;19.096;2023-05-24T02:03:00;15.45;;;10.18;;
43184;SDS011;28803;52.308;19.096;2023-05-24T02:05:31;16.65;;;9.82;;
43184;SDS011;28803;52.308;19.096;2023-05-24T02:07:58;15.45;;;10.10;;
43184;SDS011;28803;52.308;19.096;2023-05-24T02:10:26;15.93;;;9.90;;
43184;SDS011;28803;52.308;19.096;2023-05-24T02:12:53;17.92;;;10.10;;
43184;SDS011;28803;52.308;19.096;2023-05-24T02:15:20;18.70;;;11.68;;
43184;SDS011;28803;52.308;19.096;2023-05-24T02:17:47;15.70;;;10.77;;
43184;SDS011;28803;52.308;19.096;2023-05-24T02:20:14;13.10;;;9.00;;
43184;SDS011;28803;52.308;19.096;2023-05-24T02:22:43;16.67;;;9.93;;
43184;SDS011;28803;52.308;19.096;2023-05-24T02:25:10;18.13;;;9.52;;
43184;SDS011;28803;52.308;19.096;2023-05-24T02:27:37;16.45;;;10.38;;
43184;SDS011;28803;52.308;19.096;2023-05-24T02:30:05;14.63;;;9.77;;
43184;SDS011;28803;52.308;19.096;2023-05-24T02:32:33;16.73;;;10.05;;
43184;SDS011;28803;52.308;19.096;2023-05-24T02:35:01;18.38;;;10.82;;
43184;SDS011;28803;52.308;19.096;2023-05-24T02:37:28;15.05;;;9.98;;
43184;SDS011;28803;52.308;19.096;2023-05-24T02:39:56;19.98;;;10.95;;
43184;SDS011;28803;52.308;19.096;2023-05-24T02:42:23;13.98;;;9.65;;
43184;SDS011;28803;52.308;19.096;2023-05-24T02:44:50;17.00;;;10.07;;
43184;SDS011;28803;52.308;19.096;2023-05-24T02:47:18;16.75;;;11.02;;
43184;SDS011;28803;52.308;19.096;2023-05-24T02:49:46;16.75;;;10.75;;
43184;SDS011;28803;52.308;19.096;2023-05-24T02:52:13;16.60;;;10.48;;
43184;SDS011;28803;52.308;19.096;2023-05-24T02:54:42;14.73;;;10.45;;
43184;SDS011;28803;52.308;19.096;2023-05-24T02:57:09;20.77;;;11.85;;
43184;SDS011;28803;52.308;19.096;2023-05-24T02:59:37;17.40;;;11.52;;
43184;SDS011;28803;52.308;19.096;2023-05-24T03:02:04;17.85;;;11.52;;
43184;SDS011;28803;52.308;19.096;2023-05-24T03:04:32;18.00;;;12.45;;
43184;SDS011;28803;52.308;19.096;2023-05-24T03:07:00;20.73;;;12.98;;
43184;SDS011;28803;52.308;19.096;2023-05-24T03:09:27;15.88;;;10.63;;
43184;SDS011;28803;52.308;19.096;2023-05-24T03:11:54;19.73;;;12.32;;
43184;SDS011;28803;52.308;19.096;2023-05-24T03:14:22;17.33;;;11.80;;
43184;SDS011;28803;52.308;19.096;2023-05-24T03:16:50;17.33;;;11.88;;
43184;SDS011;28803;52.308;19.096;2023-05-24T03:19:18;18.05;;;11.52;;
43184;SDS011;28803;52.308;19.096;2023-05-24T03:21:45;24.88;;;12.98;;
43184;SDS011;28803;52.308;19.096;2023-05-24T03:24:12;16.58;;;11.40;;
43184;SDS011;28803;52.308;19.096;2023-05-24T03:26:39;16.65;;;11.50;;
43184;SDS011;28803;52.308;19.096;2023-05-24T03:29:07;16.42;;;11.25;;
43184;SDS011;28803;52.308;19.096;2023-05-24T03:31:34;19.25;;;12.27;;
43184;SDS011;28803;52.308;19.096;2023-05-24T03:34:01;18.20;;;11.55;;
43184;SDS011;28803;52.308;19.096;2023-05-24T03:36:29;18.45;;;12.55;;
43184;SDS011;28803;52.308;19.096;2023-05-24T03:38:56;18.88;;;13.18;;
43184;SDS011;28803;52.308;19.096;2023-05-24T03:41:24;19.83;;;13.13;;
43184;SDS011;28803;52.308;19.096;2023-05-24T03:43:53;18.60;;;12.15;;
43184;SDS011;28803;52.308;19.096;2023-05-24T03:46:20;19.30;;;13.00;;
43184;SDS011;28803;52.308;19.096;2023-05-24T03:48:48;19.90;;;13.38;;
43184;SDS011;28803;52.308;19.096;2023-05-24T03:51:15;19.52;;;13.48;;
43184;SDS011;28803;52.308;19.096;2023-05-24T03:53:43;19.00;;;12.45;;
43184;SDS011;28803;52.308;19.096;2023-05-24T03:56:10;21.95;;;13.70;;
43184;SDS011;28803;52.308;19.096;2023-05-24T03:58:38;22.52;;;13.82;;
43184;SDS011;28803;52.308;19.096;2023-05-24T04:01:05;18.88;;;13.57;;
43184;SDS011;28803;52.308;19.096;2023-05-24T04:03:32;23.75;;;13.55;;
43184;SDS011;28803;52.308;19.096;2023-05-24T04:05:59;21.10;;;14.15;;
43184;SDS011;28803;52.308;19.096;2023-05-24T04:08:27;21.25;;;13.98;;
43184;SDS011;28803;52.308;19.096;2023-05-24T04:10:54;19.67;;;12.95;;
43184;SDS011;28803;52.308;19.096;2023-05-24T04:13:21;18.52;;;13.40;;
43184;SDS011;28803;52.308;19.096;2023-05-24T04:15:49;17.48;;;13.10;;
43184;SDS011;28803;52.308;19.096;2023-05-24T04:18:16;16.63;;;11.45;;
43184;SDS011;28803;52.308;19.096;2023-05-24T04:20:43;19.92;;;12.93;;
43184;SDS011;28803;52.308;19.096;2023-05-24T04:23:11;18.08;;;12.60;;
43184;SDS011;28803;52.308;19.096;2023-05-24T04:25:38;17.98;;;12.30;;
43184;SDS011;28803;52.308;19.096;2023-05-24T04:28:06;16.23;;;11.68;;
43184;SDS011;28803;52.308;19.096;2023-05-24T04:30:33;18.65;;;11.30;;
43184;SDS011;28803;52.308;19.096;2023-05-24T04:33:02;20.98;;;12.38;;
43184;SDS011;28803;52.308;19.096;2023-05-24T04:35:30;18.77;;;11.70;;
43184;SDS011;28803;52.308;19.096;2023-05-24T04:37:57;17.50;;;11.00;;
43184;SDS011;28803;52.308;19.096;2023-05-24T04:40:25;16.63;;;11.65;;
43184;SDS011;28803;52.308;19.096;2023-05-24T04:42:53;17.77;;;12.10;;
43184;SDS011;28803;52.308;19.096;2023-05-24T04:45:20;16.85;;;11.23;;
43184;SDS011;28803;52.308;19.096;2023-05-24T04:47:47;17.85;;;10.77;;
43184;SDS011;28803;52.308;19.096;2023-05-24T04:50:14;15.90;;;9.98;;
43184;SDS011;28803;52.308;19.096;2023-05-24T04:52:42;16.45;;;10.98;;
43184;SDS011;28803;52.308;19.096;2023-05-24T04:55:09;14.00;;;9.90;;
43184;SDS011;28803;52.308;19.096;2023-05-24T04:57:37;12.85;;;9.60;;
43184;SDS011;28803;52.308;19.096;2023-05-24T05:00:05;13.00;;;9.32;;
43184;SDS011;28803;52.308;19.096;2023-05-24T05:02:33;18.48;;;10.35;;
43184;SDS011;28803;52.308;19.096;2023-05-24T05:05:01;12.27;;;8.95;;
43184;SDS011;28803;52.308;19.096;2023-05-24T05:07:29;20.48;;;10.25;;
43184;SDS011;28803;52.308;19.096;2023-05-24T05:09:56;15.95;;;9.50;;
43184;SDS011;28803;52.308;19.096;2023-05-24T05:12:23;13.45;;;9.18;;
43184;SDS011;28803;52.308;19.096;2023-05-24T05:14:51;13.82;;;10.55;;
43184;SDS011;28803;52.308;19.096;2023-05-24T05:17:18;13.75;;;9.80;;
43184;SDS011;28803;52.308;19.096;2023-05-24T05:19:45;15.68;;;9.27;;
43184;SDS011;28803;52.308;19.096;2023-05-24T05:22:13;13.32;;;9.95;;
43184;SDS011;28803;52.308;19.096;2023-05-24T05:24:41;14.82;;;10.45;;
43184;SDS011;28803;52.308;19.096;2023-05-24T05:27:09;12.88;;;9.82;;
43184;SDS011;28803;52.308;19.096;2023-05-24T05:29:36;17.42;;;10.65;;
43184;SDS011;28803;52.308;19.096;2023-05-24T05:32:04;16.08;;;9.95;;
43184;SDS011;28803;52.308;19.096;2023-05-24T05:34:31;14.13;;;9.52;;
43184;SDS011;28803;52.308;19.096;2023-05-24T05:36:59;13.68;;;9.93;;
43184;SDS011;28803;52.308;19.096;2023-05-24T05:39:27;15.40;;;9.93;;
43184;SDS011;28803;52.308;19.096;2023-05-24T05:41:54;14.82;;;9.93;;
43184;SDS011;28803;52.308;19.096;2023-05-24T05:44:21;15.40;;;9.57;;
43184;SDS011;28803;52.308;19.096;2023-05-24T05:46:49;15.65;;;10.65;;
43184;SDS011;28803;52.308;19.096;2023-05-24T05:49:16;15.00;;;10.18;;
43184;SDS011;28803;52.308;19.096;2023-05-24T05:51:44;14.05;;;9.90;;
43184;SDS011;28803;52.308;19.096;2023-05-24T05:54:12;14.88;;;10.27;;
43184;SDS011;28803;52.308;19.096;2023-05-24T05:56:41;12.40;;;9.85;;
43184;SDS011;28803;52.308;19.096;2023-05-24T05:59:13;13.75;;;10.15;;
43184;SDS011;28803;52.308;19.096;2023-05-24T06:01:42;14.82;;;10.15;;
43184;SDS011;28803;52.308;19.096;2023-05-24T06:04:11;14.50;;;10.18;;
43184;SDS011;28803;52.308;19.096;2023-05-24T06:06:39;14.68;;;9.25;;
43184;SDS011;28803;52.308;19.096;2023-05-24T06:09:07;15.32;;;9.40;;
43184;SDS011;28803;52.308;19.096;2023-05-24T06:11:35;11.13;;;8.57;;
43184;SDS011;28803;52.308;19.096;2023-05-24T06:14:02;14.88;;;8.98;;
43184;SDS011;28803;52.308;19.096;2023-05-24T06:16:30;12.30;;;8.13;;
43184;SDS011;28803;52.308;19.096;2023-05-24T06:18:58;13.65;;;9.18;;
43184;SDS011;28803;52.308;19.096;2023-05-24T06:21:32;14.88;;;9.05;;
43184;SDS011;28803;52.308;19.096;2023-05-24T06:24:03;12.70;;;8.25;;
43184;SDS011;28803;52.308;19.096;2023-05-24T06:26:30;11.88;;;8.45;;
43184;SDS011;28803;52.308;19.096;2023-05-24T06:28:57;11.43;;;9.15;;
43184;SDS011;28803;52.308;19.096;2023-05-24T06:31:24;12.82;;;8.30;;
43184;SDS011;28803;52.308;19.096;2023-05-24T06:33:52;12.35;;;8.70;;
43184;SDS011;28803;52.308;19.096;2023-05-24T06:36:29;14.02;;;7.47;;
43184;SDS011;28803;52.308;19.096;2023-05-24T06:39:09;10.88;;;8.77;;
43184;SDS011;28803;52.308;19.096;2023-05-24T06:41:36;13.68;;;8.20;;
43184;SDS011;28803;52.308;19.096;2023-05-24T06:44:04;15.27;;;9.02;;
43184;SDS011;28803;52.308;19.096;2023-05-24T06:46:32;14.45;;;8.90;;
43184;SDS011;28803;52.308;19.096;2023-05-24T06:49:00;13.93;;;8.90;;
43184;SDS011;28803;52.308;19.096;2023-05-24T06:51:27;13.95;;;8.70;;
43184;SDS011;28803;52.308;19.096;2023-05-24T06:53:55;12.70;;;8.10;;
43184;SDS011;28803;52.308;19.096;2023-05-24T06:56:22;12.25;;;8.60;;
43184;SDS011;28803;52.308;19.096;2023-05-24T06:58:50;13.07;;;8.73;;
43184;SDS011;28803;52.308;19.096;2023-05-24T07:01:17;13.77;;;8.65;;
43184;SDS011;28803;52.308;19.096;2023-05-24T07:03:45;13.85;;;8.32;;
43184;SDS011;28803;52.308;19.096;2023-05-24T07:06:12;11.48;;;8.43;;
43184;SDS011;28803;52.308;19.096;2023-05-24T07:08:41;14.23;;;8.50;;
43184;SDS011;28803;52.308;19.096;2023-05-24T07:11:08;12.80;;;8.23;;
43184;SDS011;28803;52.308;19.096;2023-05-24T07:13:36;13.43;;;9.63;;
43184;SDS011;28803;52.308;19.096;2023-05-24T07:16:03;18.20;;;7.75;;
43184;SDS011;28803;52.308;19.096;2023-05-24T07:18:32;13.60;;;8.45;;
43184;SDS011;28803;52.308;19.096;2023-05-24T07:20:59;13.02;;;8.30;;
43184;SDS011;28803;52.308;19.096;2023-05-24T07:23:27;11.50;;;8.23;;
43184;SDS011;28803;52.308;19.096;2023-05-24T07:25:54;14.45;;;8.65;;
43184;SDS011;28803;52.308;19.096;2023-05-24T07:28:21;11.77;;;8.27;;
43184;SDS011;28803;52.308;19.096;2023-05-24T07:30:49;10.02;;;7.70;;
43184;SDS011;28803;52.308;19.096;2023-05-24T07:33:17;12.32;;;8.70;;
43184;SDS011;28803;52.308;19.096;2023-05-24T07:35:44;10.82;;;7.82;;
43184;SDS011;28803;52.308;19.096;2023-05-24T07:38:17;11.90;;;8.07;;
43184;SDS011;28803;52.308;19.096;2023-05-24T07:40:44;12.10;;;8.25;;
43184;SDS011;28803;52.308;19.096;2023-05-24T07:43:12;11.07;;;7.78;;
43184;SDS011;28803;52.308;19.096;2023-05-24T07:45:39;9.93;;;7.13;;
43184;SDS011;28803;52.308;19.096;2023-05-24T07:48:07;12.05;;;8.10;;
43184;SDS011;28803;52.308;19.096;2023-05-24T07:50:34;12.15;;;6.90;;
43184;SDS011;28803;52.308;19.096;2023-05-24T07:53:02;10.20;;;6.78;;
43184;SDS011;28803;52.308;19.096;2023-05-24T07:55:30;9.23;;;6.68;;
43184;SDS011;28803;52.308;19.096;2023-05-24T07:57:58;9.60;;;7.38;;
43184;SDS011;28803;52.308;19.096;2023-05-24T08:00:25;10.85;;;7.28;;
43184;SDS011;28803;52.308;19.096;2023-05-24T08:02:53;10.13;;;7.15;;
43184;SDS011;28803;52.308;19.096;2023-05-24T08:05:21;10.43;;;7.10;;
43184;SDS011;28803;52.308;19.096;2023-05-24T08:07:49;10.15;;;6.38;;
43184;SDS011;28803;52.308;19.096;2023-05-24T08:10:16;8.70;;;6.65;;
43184;SDS011;28803;52.308;19.096;2023-05-24T08:12:44;10.38;;;7.45;;
43184;SDS011;28803;52.308;19.096;2023-05-24T08:15:12;10.85;;;7.00;;
43184;SDS011;28803;52.308;19.096;2023-05-24T08:17:40;11.70;;;7.60;;
43184;SDS011;28803;52.308;19.096;2023-05-24T08:20:07;10.05;;;6.93;;
43184;SDS011;28803;52.308;19.096;2023-05-24T08:22:35;11.25;;;6.68;;
43184;SDS011;28803;52.308;19.096;2023-05-24T08:25:03;10.32;;;7.43;;
43184;SDS011;28803;52.308;19.096;2023-05-24T08:27:32;10.88;;;6.95;;
43184;SDS011;28803;52.308;19.096;2023-05-24T08:29:59;8.88;;;6.32;;
43184;SDS011;28803;52.308;19.096;2023-05-24T08:32:27;10.90;;;7.68;;
43184;SDS011;28803;52.308;19.096;2023-05-24T08:34:55;10.98;;;6.03;;
43184;SDS011;28803;52.308;19.096;2023-05-24T08:37:43;10.70;;;6.78;;
43184;SDS011;28803;52.308;19.096;2023-05-24T08:40:10;10.18;;;6.85;;
43184;SDS011;28803;52.308;19.096;2023-05-24T08:42:39;8.63;;;6.50;;
43184;SDS011;28803;52.308;19.096;2023-05-24T08:45:07;14.48;;;6.65;;
43184;SDS011;28803;52.308;19.096;2023-05-24T08:50:08;10.35;;;6.03;;
43184;SDS011;28803;52.308;19.096;2023-05-24T08:52:36;12.00;;;7.22;;
43184;SDS011;28803;52.308;19.096;2023-05-24T08:55:05;8.85;;;5.88;;
43184;SDS011;28803;52.308;19.096;2023-05-24T08:57:33;9.80;;;5.85;;
43184;SDS011;28803;52.308;19.096;2023-05-24T09:00:05;8.40;;;5.32;;
43184;SDS011;28803;52.308;19.096;2023-05-24T09:02:37;8.55;;;6.07;;
43184;SDS011;28803;52.308;19.096;2023-05-24T09:05:07;8.45;;;5.72;;
43184;SDS011;28803;52.308;19.096;2023-05-24T09:07:37;9.15;;;5.45;;
43184;SDS011;28803;52.308;19.096;2023-05-24T09:10:05;9.27;;;5.47;;
43184;SDS011;28803;52.308;19.096;2023-05-24T09:12:37;7.50;;;5.22;;
43184;SDS011;28803;52.308;19.096;2023-05-24T09:15:06;7.40;;;5.57;;
43184;SDS011;28803;52.308;19.096;2023-05-24T09:17:35;6.68;;;4.93;;
43184;SDS011;28803;52.308;19.096;2023-05-24T09:20:06;9.38;;;4.57;;
43184;SDS011;28803;52.308;19.096;2023-05-24T09:22:37;6.20;;;4.28;;
43184;SDS011;28803;52.308;19.096;2023-05-24T09:25:11;8.90;;;4.95;;
43184;SDS011;28803;52.308;19.096;2023-05-24T09:27:42;7.50;;;4.70;;
43184;SDS011;28803;52.308;19.096;2023-05-24T09:30:14;6.60;;;4.88;;
43184;SDS011;28803;52.308;19.096;2023-05-24T09:32:57;8.63;;;4.63;;
43184;SDS011;28803;52.308;19.096;2023-05-24T09:35:26;8.68;;;4.47;;
43184;SDS011;28803;52.308;19.096;2023-05-24T09:37:54;6.72;;;5.15;;
43184;SDS011;28803;52.308;19.096;2023-05-24T09:40:26;8.85;;;5.63;;
43184;SDS011;28803;52.308;19.096;2023-05-24T09:43:03;7.57;;;4.93;;
43184;SDS011;28803;52.308;19.096;2023-05-24T09:45:45;7.40;;;4.80;;
43184;SDS011;28803;52.308;19.096;2023-05-24T09:48:13;6.43;;;4.63;;
43184;SDS011;28803;52.308;19.096;2023-05-24T09:50:42;7.53;;;5.03;;
43184;SDS011;28803;52.308;19.096;2023-05-24T09:53:15;7.82;;;4.35;;
43184;SDS011;28803;52.308;19.096;2023-05-24T09:55:44;6.28;;;4.93;;
43184;SDS011;28803;52.308;19.096;2023-05-24T09:58:12;7.05;;;4.30;;
43184;SDS011;28803;52.308;19.096;2023-05-24T10:00:41;5.80;;;4.32;;
43184;SDS011;28803;52.308;19.096;2023-05-24T10:03:10;8.18;;;4.60;;
43184;SDS011;28803;52.308;19.096;2023-05-24T10:05:40;7.32;;;5.35;;
43184;SDS011;28803;52.308;19.096;2023-05-24T10:08:10;6.85;;;4.90;;
43184;SDS011;28803;52.308;19.096;2023-05-24T10:10:37;6.20;;;4.50;;
43184;SDS011;28803;52.308;19.096;2023-05-24T10:13:06;8.30;;;4.38;;
43184;SDS011;28803;52.308;19.096;2023-05-24T10:15:33;6.70;;;4.30;;
43184;SDS011;28803;52.308;19.096;2023-05-24T10:18:01;7.00;;;4.68;;
43184;SDS011;28803;52.308;19.096;2023-05-24T10:20:37;7.95;;;4.88;;
43184;SDS011;28803;52.308;19.096;2023-05-24T10:23:08;7.50;;;5.13;;
43184;SDS011;28803;52.308;19.096;2023-05-24T10:25:37;6.80;;;4.35;;
43184;SDS011;28803;52.308;19.096;2023-05-24T10:28:11;6.03;;;4.32;;
43184;SDS011;28803;52.308;19.096;2023-05-24T10:33:12;6.38;;;4.40;;
43184;SDS011;28803;52.308;19.096;2023-05-24T10:35:40;13.32;;;5.20;;
43184;SDS011;28803;52.308;19.096;2023-05-24T10:38:09;5.20;;;4.07;;
43184;SDS011;28803;52.308;19.096;2023-05-24T10:40:40;5.20;;;4.18;;
43184;SDS011;28803;52.308;19.096;2023-05-24T10:43:09;10.60;;;5.38;;
43184;SDS011;28803;52.308;19.096;2023-05-24T10:45:37;6.60;;;4.32;;
43184;SDS011;28803;52.308;19.096;2023-05-24T10:50:40;6.00;;;4.40;;
43184;SDS011;28803;52.308;19.096;2023-05-24T10:59:05;6.68;;;4.22;;
43184;SDS011;28803;52.308;19.096;2023-05-24T11:01:25;6.72;;;4.72;;
43184;SDS011;28803;52.308;19.096;2023-05-24T11:04:11;5.88;;;4.72;;
43184;SDS011;28803;52.308;19.096;2023-05-24T11:06:49;9.10;;;5.13;;
43184;SDS011;28803;52.308;19.096;2023-05-24T11:12:15;6.20;;;4.50;;
43184;SDS011;28803;52.308;19.096;2023-05-24T11:14:47;8.13;;;4.25;;
43184;SDS011;28803;52.308;19.096;2023-05-24T11:17:15;6.78;;;4.80;;
43184;SDS011;28803;52.308;19.096;2023-05-24T11:19:50;6.18;;;4.20;;
43184;SDS011;28803;52.308;19.096;2023-05-24T11:22:23;5.80;;;4.03;;
43184;SDS011;28803;52.308;19.096;2023-05-24T11:24:53;5.07;;;3.70;;
43184;SDS011;28803;52.308;19.096;2023-05-24T11:27:20;5.10;;;3.38;;
43184;SDS011;28803;52.308;19.096;2023-05-24T11:29:51;5.60;;;3.95;;
43184;SDS011;28803;52.308;19.096;2023-05-24T11:32:19;6.07;;;3.53;;
43184;SDS011;28803;52.308;19.096;2023-05-24T11:34:47;5.40;;;4.18;;
43184;SDS011;28803;52.308;19.096;2023-05-24T11:37:15;6.03;;;4.40;;
43184;SDS011;28803;52.308;19.096;2023-05-24T11:39:48;5.90;;;4.15;;
43184;SDS011;28803;52.308;19.096;2023-05-24T11:42:20;5.30;;;3.90;;
43184;SDS011;28803;52.308;19.096;2023-05-24T11:44:49;4.35;;;3.42;;
43184;SDS011;28803;52.308;19.096;2023-05-24T11:47:18;5.15;;;4.22;;
43184;SDS011;28803;52.308;19.096;2023-05-24T11:49:50;6.57;;;4.20;;
43184;SDS011;28803;52.308;19.096;2023-05-24T11:52:17;5.13;;;3.95;;
43184;SDS011;28803;52.308;19.096;2023-05-24T11:54:45;6.63;;;3.83;;
43184;SDS011;28803;52.308;19.096;2023-05-24T11:57:13;6.60;;;3.50;;
43184;SDS011;28803;52.308;19.096;2023-05-24T11:59:42;5.95;;;4.53;;
43184;SDS011;28803;52.308;19.096;2023-05-24T12:02:09;6.03;;;3.72;;
43184;SDS011;28803;52.308;19.096;2023-05-24T12:04:36;9.35;;;3.75;;
43184;SDS011;28803;52.308;19.096;2023-05-24T12:07:09;4.85;;;3.80;;
43184;SDS011;28803;52.308;19.096;2023-05-24T12:09:37;9.57;;;4.38;;
43184;SDS011;28803;52.308;19.096;2023-05-24T12:12:05;5.75;;;4.10;;
43184;SDS011;28803;52.308;19.096;2023-05-24T12:14:34;6.15;;;4.50;;
43184;SDS011;28803;52.308;19.096;2023-05-24T12:17:01;5.15;;;4.03;;
43184;SDS011;28803;52.308;19.096;2023-05-24T12:19:29;9.18;;;4.57;;
43184;SDS011;28803;52.308;19.096;2023-05-24T12:22:04;8.27;;;4.38;;
43184;SDS011;28803;52.308;19.096;2023-05-24T12:24:33;5.07;;;3.97;;
43184;SDS011;28803;52.308;19.096;2023-05-24T12:27:03;6.72;;;4.63;;
43184;SDS011;28803;52.308;19.096;2023-05-24T12:29:35;7.57;;;4.03;;
43184;SDS011;28803;52.308;19.096;2023-05-24T12:32:04;7.55;;;4.05;;
43184;SDS011;28803;52.308;19.096;2023-05-24T12:34:41;6.22;;;4.47;;
43184;SDS011;28803;52.308;19.096;2023-05-24T12:37:10;6.22;;;3.72;;
43184;SDS011;28803;52.308;19.096;2023-05-24T12:39:39;6.72;;;3.55;;
43184;SDS011;28803;52.308;19.096;2023-05-24T12:42:09;7.03;;;3.83;;
43184;SDS011;28803;52.308;19.096;2023-05-24T12:44:42;4.53;;;3.70;;
43184;SDS011;28803;52.308;19.096;2023-05-24T12:47:34;6.07;;;3.75;;
43184;SDS011;28803;52.308;19.096;2023-05-24T12:50:40;5.38;;;3.83;;
43184;SDS011;28803;52.308;19.096;2023-05-24T12:53:07;5.63;;;3.47;;
43184;SDS011;28803;52.308;19.096;2023-05-24T12:55:36;6.60;;;3.75;;
43184;SDS011;28803;52.308;19.096;2023-05-24T12:58:03;5.55;;;3.95;;
43184;SDS011;28803;52.308;19.096;2023-05-24T13:00:33;8.25;;;4.20;;
43184;SDS011;28803;52.308;19.096;2023-05-24T13:03:01;7.13;;;3.90;;
43184;SDS011;28803;52.308;19.096;2023-05-24T13:05:43;20.17;;;6.40;;
43184;SDS011;28803;52.308;19.096;2023-05-24T13:08:11;5.80;;;3.78;;
43184;SDS011;28803;52.308;19.096;2023-05-24T13:10:39;6.00;;;4.15;;
43184;SDS011;28803;52.308;19.096;2023-05-24T13:13:06;6.22;;;3.80;;
43184;SDS011;28803;52.308;19.096;2023-05-24T13:15:33;8.45;;;4.57;;
43184;SDS011;28803;52.308;19.096;2023-05-24T13:18:01;5.53;;;4.03;;
43184;SDS011;28803;52.308;19.096;2023-05-24T13:20:29;18.17;;;5.28;;
43184;SDS011;28803;52.308;19.096;2023-05-24T13:22:56;6.57;;;4.00;;
43184;SDS011;28803;52.308;19.096;2023-05-24T13:25:23;7.60;;;3.65;;
43184;SDS011;28803;52.308;19.096;2023-05-24T13:27:52;6.95;;;4.43;;
43184;SDS011;28803;52.308;19.096;2023-05-24T13:30:19;5.88;;;4.22;;
43184;SDS011;28803;52.308;19.096;2023-05-24T13:32:53;6.18;;;4.70;;
43184;SDS011;28803;52.308;19.096;2023-05-24T13:35:21;6.57;;;4.43;;
43184;SDS011;28803;52.308;19.096;2023-05-24T13:37:49;8.25;;;4.57;;
43184;SDS011;28803;52.308;19.096;2023-05-24T13:40:20;5.27;;;4.13;;
43184;SDS011;28803;52.308;19.096;2023-05-24T13:42:50;6.57;;;4.60;;
43184;SDS011;28803;52.308;19.096;2023-05-24T13:45:18;8.95;;;4.53;;
43184;SDS011;28803;52.308;19.096;2023-05-24T13:47:45;5.28;;;3.90;;
43184;SDS011;28803;52.308;19.096;2023-05-24T13:50:13;8.30;;;5.40;;
43184;SDS011;28803;52.308;19.096;2023-05-24T13:52:40;6.18;;;4.40;;
43184;SDS011;28803;52.308;19.096;2023-05-24T13:55:08;4.72;;;4.03;;
43184;SDS011;28803;52.308;19.096;2023-05-24T13:57:35;5.38;;;4.50;;
43184;SDS011;28803;52.308;19.096;2023-05-24T14:00:17;6.43;;;5.28;;
43184;SDS011;28803;52.308;19.096;2023-05-24T14:02:45;6.97;;;5.20;;
43184;SDS011;28803;52.308;19.096;2023-05-24T14:05:13;7.43;;;4.75;;
43184;SDS011;28803;52.308;19.096;2023-05-24T14:07:53;6.70;;;4.72;;
43184;SDS011;28803;52.308;19.096;2023-05-24T14:10:21;7.78;;;4.35;;
43184;SDS011;28803;52.308;19.096;2023-05-24T14:12:49;5.50;;;4.32;;
43184;SDS011;28803;52.308;19.096;2023-05-24T14:15:37;8.02;;;5.10;;
43184;SDS011;28803;52.308;19.096;2023-05-24T14:18:04;7.97;;;5.53;;
43184;SDS011;28803;52.308;19.096;2023-05-24T14:20:35;7.28;;;4.93;;
43184;SDS011;28803;52.308;19.096;2023-05-24T14:23:03;6.80;;;4.95;;
43184;SDS011;28803;52.308;19.096;2023-05-24T14:25:32;9.60;;;4.50;;
43184;SDS011;28803;52.308;19.096;2023-05-24T14:27:59;7.40;;;5.00;;
43184;SDS011;28803;52.308;19.096;2023-05-24T14:30:27;7.45;;;4.28;;
43184;SDS011;28803;52.308;19.096;2023-05-24T14:32:56;7.70;;;5.28;;
43184;SDS011;28803;52.308;19.096;2023-05-24T14:35:27;6.43;;;4.55;;
43184;SDS011;28803;52.308;19.096;2023-05-24T14:37:54;6.68;;;5.10;;
43184;SDS011;28803;52.308;19.096;2023-05-24T14:40:22;6.95;;;4.93;;
43184;SDS011;28803;52.308;19.096;2023-05-24T14:42:49;7.60;;;5.03;;
43184;SDS011;28803;52.308;19.096;2023-05-24T14:45:16;7.35;;;4.97;;
43184;SDS011;28803;52.308;19.096;2023-05-24T14:47:44;5.93;;;4.43;;
43184;SDS011;28803;52.308;19.096;2023-05-24T14:50:11;6.72;;;5.40;;
43184;SDS011;28803;52.308;19.096;2023-05-24T14:52:38;7.30;;;5.32;;
43184;SDS011;28803;52.308;19.096;2023-05-24T14:55:06;5.65;;;4.47;;